^^
B2 Weather Station Historical Data
Daily Summary for January 4, 2018 Units:  Metric    English   Both
« Previous Day
Next Day »
Daily Weekly Monthly Yearly Custom
  High: Low: Average:
Temperature: -13.2 °C -20.4 °C -17.3 °C
Dew Point: -17.8 °C -22.8 °C -20.4 °C
Humidity: 81 % 67 % 77 %
Wind Speed: 22.2 km/h 3.7 km/h 15 km/h
Wind Gust: 22.2 km/h - -
Wind:- - WNW
Pressure: 1028.7 hPa 1022.6 hPa -
Precipitation: 0 mm    
Historical Graphs
 
 
Tabular Data for January 4, 2018
Time Temperature Dew Point Pressure Wind Wind Speed Wind Gust Humidity Rainfall Rate (Hourly) solar Conditions
00:02 -17 °C -19.9 °C 1022.6 hPa NW 13 km/h 13 km/h 78 % 0 mm 0.0 W/m2 RA
00:05 -17.2 °C -20.1 °C 1022.9 hPa WNW 16.7 km/h 16.7 km/h 78 % 0 mm 0.0 W/m2 RA
00:10 -17.3 °C -20.2 °C 1022.9 hPa WNW 16.7 km/h 16.7 km/h 78 % 0 mm 0.0 W/m2 CLR
00:15 -17.3 °C -20.3 °C 1022.6 hPa NW 11.3 km/h 11.3 km/h 78 % 0 mm 0.0 W/m2 CLR
00:16 -17.3 °C -20.3 °C 1022.6 hPa NW 14.8 km/h 14.8 km/h 78 % 0 mm 0.0 W/m2 CLR
00:21 -17.5 °C -20.4 °C 1022.9 hPa WNW 11.1 km/h 11.1 km/h 78 % 0 mm 0.0 W/m2 CLR
00:22 -17.5 °C -20.4 °C 1022.9 hPa WNW 13 km/h 13 km/h 78 % 0 mm 0.0 W/m2 CLR
00:27 -17.6 °C -20.4 °C 1022.9 hPa NW 13 km/h 13 km/h 78 % 0 mm 0.0 W/m2 CLR
00:28 -17.6 °C -20.5 °C 1022.9 hPa WNW 13 km/h 13 km/h 78 % 0 mm 0.0 W/m2 CLR
00:31 -17.7 °C -20.4 °C 1022.9 hPa WNW 13 km/h 13 km/h 79 % 0 mm 0.0 W/m2 CLR
00:33 -17.7 °C -20.4 °C 1025.3 hPa NW 9.3 km/h 9.3 km/h 79 % 0 mm 0.0 W/m2 CLR
00:34 -17.7 °C -20.4 °C 1022.9 hPa NW 13 km/h 13 km/h 79 % 0 mm 0.0 W/m2 CLR
00:35 -17.7 °C -20.5 °C 1022.9 hPa WNW 11.1 km/h 11.1 km/h 79 % 0 mm 0.0 W/m2 CLR
00:39 -17.8 °C -20.6 °C 1022.9 hPa WNW 11.3 km/h 11.3 km/h 79 % 0 mm 0.0 W/m2 CLR
00:44 -17.8 °C -20.6 °C 1023.2 hPa WNW 13 km/h 13 km/h 79 % 0 mm 0.0 W/m2 CLR
00:46 -17.8 °C -20.6 °C 1023.2 hPa WNW 13 km/h 13 km/h 79 % 0 mm 0.0 W/m2 CLR
00:47 -17.8 °C -20.6 °C 1025.3 hPa West 13 km/h 13 km/h 79 % 0 mm 0.0 W/m2 CLR
00:50 -17.9 °C -20.7 °C 1023.2 hPa WNW 13 km/h 13 km/h 79 % 0 mm 0.0 W/m2 CLR
00:55 -17.9 °C -20.7 °C 1023.2 hPa WNW 11.1 km/h 11.1 km/h 79 % 0 mm 0.0 W/m2 CLR
00:57 -18 °C -20.8 °C 1023.2 hPa WNW 13 km/h 13 km/h 79 % 0 mm 0.0 W/m2 CLR
01:02 -18.1 °C -20.8 °C 1023.2 hPa WNW 9.3 km/h 9.3 km/h 79 % 0 mm 0.0 W/m2 CLR
01:03 -18.1 °C -20.8 °C 1023.2 hPa WNW 11.1 km/h 11.1 km/h 79 % 0 mm 0.0 W/m2 CLR
01:05 -18.1 °C -20.9 °C 1023.2 hPa WNW 13 km/h 13 km/h 79 % 0 mm 0.0 W/m2 CLR
01:09 -18.1 °C -20.9 °C 1023.2 hPa WNW 13 km/h 13 km/h 79 % 0 mm 0.0 W/m2 CLR
01:12 -18.2 °C -20.9 °C 1023.2 hPa WNW 9.7 km/h 9.7 km/h 79 % 0 mm 0.0 W/m2 CLR
01:13 -18.2 °C -20.9 °C 1025.3 hPa WNW 8 km/h 8 km/h 79 % 0 mm 0.0 W/m2 CLR
01:16 -18.2 °C -20.9 °C 1023.2 hPa WNW 13 km/h 13 km/h 79 % 0 mm 0.0 W/m2 CLR
01:17 -18.2 °C -20.9 °C 1025.3 hPa NW 13 km/h 13 km/h 79 % 0 mm 0.0 W/m2 CLR
01:22 -18.3 °C -21 °C 1023.2 hPa WNW 9.3 km/h 9.3 km/h 79 % 0 mm 0.0 W/m2 CLR
01:23 -18.3 °C -21 °C 1023.2 hPa WNW 13 km/h 13 km/h 79 % 0 mm 0.0 W/m2 CLR
01:29 -18.3 °C -21 °C 1023.2 hPa WNW 9.7 km/h 9.7 km/h 79 % 0 mm 0.0 W/m2 CLR
01:34 -18.3 °C -20.9 °C 1023.2 hPa WNW 9.3 km/h 9.3 km/h 80 % 0 mm 0.0 W/m2 CLR
01:35 -18.3 °C -20.9 °C 1023.2 hPa NW 7.4 km/h 7.4 km/h 80 % 0 mm 0.0 W/m2 CLR
01:38 -18.3 °C -20.9 °C 1025.6 hPa WNW 13 km/h 13 km/h 80 % 0 mm 0.0 W/m2 CLR
01:40 -18.2 °C -20.8 °C 1023.2 hPa NW 16.7 km/h 16.7 km/h 80 % 0 mm 0.0 W/m2 CLR
01:41 -18.2 °C -20.8 °C 1023.2 hPa NW 13 km/h 13 km/h 80 % 0 mm 0.0 W/m2 CLR
01:46 -18.2 °C -20.8 °C 1023.2 hPa West 9.7 km/h 9.7 km/h 80 % 0 mm 0.0 W/m2 CLR
01:51 -18.3 °C -21 °C 1023.2 hPa WNW 9.3 km/h 9.3 km/h 79 % 0 mm 0.0 W/m2 CLR
01:52 -18.3 °C -21 °C 1023.2 hPa NW 11.1 km/h 11.1 km/h 79 % 0 mm 0.0 W/m2 CLR
01:55 -18.3 °C -20.9 °C 1023.2 hPa WNW 14.8 km/h 14.8 km/h 80 % 0 mm 0.0 W/m2 CLR
01:57 -18.3 °C -21 °C 1023.2 hPa WNW 9.3 km/h 9.3 km/h 79 % 0 mm 0.0 W/m2 CLR
02:02 -18.3 °C -20.9 °C 1023.2 hPa WNW 12.9 km/h 12.9 km/h 80 % 0 mm 0.0 W/m2 CLR
02:04 -18.3 °C -20.9 °C 1023.2 hPa WNW 13 km/h 13 km/h 80 % 0 mm 0.0 W/m2 CLR
02:05 -18.3 °C -20.9 °C 1023.2 hPa West 11.1 km/h 11.1 km/h 80 % 0 mm 0.0 W/m2 CLR
02:07 -18.3 °C -20.9 °C 1023.2 hPa WNW 11.1 km/h 11.1 km/h 80 % 0 mm 0.0 W/m2 CLR
02:10 -18.3 °C -21 °C 1023.2 hPa West 16.7 km/h 16.7 km/h 79 % 0 mm 0.0 W/m2 CLR
02:11 -18.3 °C -21 °C 1023.6 hPa WNW 13 km/h 13 km/h 79 % 0 mm 0.0 W/m2 CLR
02:13 -18.3 °C -21 °C 1025.6 hPa WNW 13 km/h 13 km/h 79 % 0 mm 0.0 W/m2 CLR
02:16 -18.3 °C -21 °C 1023.6 hPa WNW 14.8 km/h 14.8 km/h 79 % 0 mm 0.0 W/m2 CLR
02:18 -18.3 °C -21.1 °C 1023.6 hPa WNW 9.3 km/h 9.3 km/h 79 % 0 mm 0.0 W/m2 CLR
02:21 -18.3 °C -21.1 °C 1023.6 hPa WNW 14.8 km/h 14.8 km/h 79 % 0 mm 0.0 W/m2 CLR
02:26 -18.4 °C -21.2 °C 1023.6 hPa WNW 14.8 km/h 14.8 km/h 79 % 0 mm 0.0 W/m2 CLR
02:27 -18.4 °C -21.2 °C 1023.6 hPa WNW 13 km/h 13 km/h 79 % 0 mm 0.0 W/m2 CLR
02:28 -18.4 °C -21.2 °C 1023.6 hPa NW 13 km/h 13 km/h 79 % 0 mm 0.0 W/m2 CLR
02:32 -18.5 °C -21.2 °C 1023.6 hPa WNW 16.7 km/h 16.7 km/h 79 % 0 mm 0.0 W/m2 CLR
02:36 -18.5 °C -21.2 °C 1023.6 hPa WNW 18.5 km/h 18.5 km/h 79 % 0 mm 0.0 W/m2 CLR
02:40 -18.4 °C -21.2 °C 1023.6 hPa WNW 14.8 km/h 14.8 km/h 79 % 0 mm 0.0 W/m2 CLR
02:41 -18.4 °C -21.2 °C 1023.6 hPa NW 14.8 km/h 14.8 km/h 79 % 0 mm 0.0 W/m2 CLR
02:46 -18.5 °C -21.2 °C 1023.6 hPa NW 14.8 km/h 14.8 km/h 79 % 0 mm 0.0 W/m2 CLR
02:51 -18.5 °C -21.2 °C 1023.9 hPa NW 12.9 km/h 12.9 km/h 79 % 0 mm 0.0 W/m2 CLR
02:53 -18.6 °C -21.3 °C 1023.9 hPa WNW 16.7 km/h 16.7 km/h 79 % 0 mm 0.0 W/m2 CLR
02:57 -18.5 °C -21.2 °C 1023.9 hPa NW 16.7 km/h 16.7 km/h 79 % 0 mm 0.0 W/m2 CLR
02:59 -18.5 °C -21.2 °C 1023.9 hPa WNW 18.5 km/h 18.5 km/h 79 % 0 mm 0.0 W/m2 CLR
03:04 -18.6 °C -21.3 °C 1023.9 hPa WNW 14.8 km/h 14.8 km/h 79 % 0 mm 0.0 W/m2 CLR
03:09 -18.7 °C -21.4 °C 1023.9 hPa WNW 18.5 km/h 18.5 km/h 79 % 0 mm 0.0 W/m2 CLR
03:10 -18.7 °C -21.4 °C 1023.9 hPa West 18.5 km/h 18.5 km/h 79 % 0 mm 0.0 W/m2 CLR
03:13 -18.7 °C -21.4 °C 1023.9 hPa WNW 16.7 km/h 16.7 km/h 79 % 0 mm 0.0 W/m2 CLR
03:15 -18.7 °C -21.4 °C 1023.9 hPa WNW 14.8 km/h 14.8 km/h 79 % 0 mm 0.0 W/m2 CLR
03:20 -18.7 °C -21.4 °C 1023.9 hPa NW 14.5 km/h 14.5 km/h 79 % 0 mm 0.0 W/m2 CLR
03:21 -18.7 °C -21.4 °C 1023.9 hPa WNW 14.8 km/h 14.8 km/h 79 % 0 mm 0.0 W/m2 CLR
03:26 -18.7 °C -21.3 °C 1023.9 hPa WNW 14.5 km/h 14.5 km/h 80 % 0 mm 0.0 W/m2 CLR
03:29 -18.7 °C -21.3 °C 1023.9 hPa WNW 11.3 km/h 11.3 km/h 80 % 0 mm 0.0 W/m2 CLR
03:32 -18.7 °C -21.4 °C 1023.9 hPa WNW 18.5 km/h 18.5 km/h 79 % 0 mm 0.0 W/m2 CLR
03:35 -18.7 °C -21.4 °C 1023.6 hPa NW 16.7 km/h 16.7 km/h 79 % 0 mm 0.0 W/m2 CLR
03:37 -18.8 °C -21.5 °C 1023.6 hPa WNW 18.5 km/h 18.5 km/h 79 % 0 mm 0.0 W/m2 CLR
03:42 -18.8 °C -21.5 °C 1023.9 hPa WNW 9.3 km/h 9.3 km/h 79 % 0 mm 0.0 W/m2 CLR
03:47 -18.8 °C -21.5 °C 1023.9 hPa WNW 14.8 km/h 14.8 km/h 79 % 0 mm 0.0 W/m2 CLR
03:48 -18.8 °C -21.5 °C 1023.9 hPa WNW 16.7 km/h 16.7 km/h 79 % 0 mm 0.0 W/m2 CLR
03:51 -18.7 °C -21.4 °C 1023.9 hPa WNW 11.1 km/h 11.1 km/h 79 % 0 mm 0.0 W/m2 CLR
03:55 -18.8 °C -21.5 °C 1023.9 hPa WNW 17.7 km/h 17.7 km/h 79 % 0 mm 0.0 W/m2 CLR
03:56 -18.8 °C -21.6 °C 1026 hPa WNW 18.5 km/h 18.5 km/h 79 % 0 mm 0.0 W/m2 CLR
03:58 -18.8 °C -21.6 °C 1023.9 hPa West 16.7 km/h 16.7 km/h 79 % 0 mm 0.0 W/m2 CLR
04:02 -18.9 °C -21.6 °C 1023.9 hPa West 18.5 km/h 18.5 km/h 79 % 0 mm 0.0 W/m2 CLR
04:07 -19.1 °C -21.8 °C 1023.9 hPa WNW 16.7 km/h 16.7 km/h 79 % 0 mm 0.0 W/m2 CLR
04:09 -19.1 °C -21.8 °C 1023.9 hPa WNW 14.8 km/h 14.8 km/h 79 % 0 mm 0.0 W/m2 CLR
04:14 -19.2 °C -21.9 °C 1023.6 hPa NW 16.7 km/h 16.7 km/h 79 % 0 mm 0.0 W/m2 CLR
04:16 -19.2 °C -21.9 °C 1023.6 hPa NW 16.7 km/h 16.7 km/h 79 % 0 mm 0.0 W/m2 CLR
04:19 -19.1 °C -21.7 °C 1023.9 hPa NW 16.7 km/h 16.7 km/h 80 % 0 mm 0.0 W/m2 CLR
04:24 -19.1 °C -21.7 °C 1023.9 hPa WNW 14.8 km/h 14.8 km/h 80 % 0 mm 0.0 W/m2 CLR
04:25 -19.1 °C -21.7 °C 1023.9 hPa WNW 14.8 km/h 14.8 km/h 80 % 0 mm 0.0 W/m2 CLR
04:28 -19.1 °C -21.7 °C 1023.9 hPa WNW 14.8 km/h 14.8 km/h 80 % 0 mm 0.0 W/m2 CLR
04:32 -19.1 °C -21.7 °C 1023.9 hPa West 14.8 km/h 14.8 km/h 80 % 0 mm 0.0 W/m2 CLR
04:36 -19.1 °C -21.7 °C 1023.9 hPa WNW 16.7 km/h 16.7 km/h 80 % 0 mm 0.0 W/m2 CLR
04:41 -19.1 °C -21.7 °C 1023.9 hPa WNW 14.8 km/h 14.8 km/h 80 % 0 mm 0.0 W/m2 CLR
04:46 -19.1 °C -21.8 °C 1023.9 hPa WNW 14.8 km/h 14.8 km/h 79 % 0 mm 0.0 W/m2 CLR
04:47 -19.1 °C -21.7 °C 1023.9 hPa NW 13 km/h 13 km/h 80 % 0 mm 0.0 W/m2 CLR
04:49 -19.1 °C -21.7 °C 1023.9 hPa NW 16.7 km/h 16.7 km/h 80 % 0 mm 0.0 W/m2 CLR
04:52 -19.1 °C -21.7 °C 1023.9 hPa WNW 18.5 km/h 18.5 km/h 80 % 0 mm 0.0 W/m2 CLR
04:57 -19.1 °C -21.7 °C 1023.9 hPa NW 14.8 km/h 14.8 km/h 80 % 0 mm 0.0 W/m2 CLR
04:58 -19.1 °C -21.7 °C 1023.9 hPa NW 18.5 km/h 18.5 km/h 80 % 0 mm 0.0 W/m2 CLR
04:59 -19.1 °C -21.7 °C 1023.9 hPa NW 18.5 km/h 18.5 km/h 80 % 0 mm 0.0 W/m2 CLR
05:04 -19.1 °C -21.7 °C 1023.9 hPa NW 18.5 km/h 18.5 km/h 80 % 0 mm 0.0 W/m2 CLR
05:06 -19.1 °C -21.7 °C 1023.9 hPa NW 16.7 km/h 16.7 km/h 80 % 0 mm 0.0 W/m2 CLR
05:11 -19.1 °C -21.7 °C 1023.9 hPa NW 16.7 km/h 16.7 km/h 80 % 0 mm 0.0 W/m2 CLR
05:12 -19.1 °C -21.7 °C 1023.9 hPa NW 11.1 km/h 11.1 km/h 80 % 0 mm 0.0 W/m2 CLR
05:17 -19.1 °C -21.7 °C 1023.9 hPa WNW 16.1 km/h 16.1 km/h 80 % 0 mm 0.0 W/m2 CLR
05:19 -19.1 °C -21.7 °C 1024.3 hPa WNW 13 km/h 13 km/h 80 % 0 mm 0.0 W/m2 CLR
05:24 -19.2 °C -21.9 °C 1024.3 hPa WNW 12.9 km/h 12.9 km/h 79 % 0 mm 0.0 W/m2 CLR
05:26 -19.3 °C -22.1 °C 1024.3 hPa WNW 14.8 km/h 14.8 km/h 79 % 0 mm 0.0 W/m2 CLR
05:31 -19.6 °C -22.3 °C 1024.3 hPa WNW 11.1 km/h 11.1 km/h 79 % 0 mm 0.0 W/m2 CLR
05:33 -19.6 °C -22.3 °C 1024.3 hPa NW 14.8 km/h 14.8 km/h 79 % 0 mm 0.0 W/m2 CLR
05:36 -19.7 °C -22.2 °C 1024.3 hPa West 13 km/h 13 km/h 80 % 0 mm 0.0 W/m2 CLR
05:43 -19.7 °C -22.3 °C 1024.3 hPa NW 9.3 km/h 9.3 km/h 80 % 0 mm 0.0 W/m2 CLR
05:47 -19.8 °C -22.3 °C 1024.3 hPa WNW 9.3 km/h 9.3 km/h 80 % 0 mm 0.0 W/m2 CLR
05:49 -19.7 °C -22.3 °C 1024.3 hPa NW 11.1 km/h 11.1 km/h 80 % 0 mm 0.0 W/m2 CLR
05:54 -19.7 °C -22.1 °C 1024.3 hPa WNW 11.1 km/h 11.1 km/h 81 % 0 mm 0.0 W/m2 CLR
05:59 -19.6 °C -22 °C 1024.3 hPa WNW 16.7 km/h 16.7 km/h 81 % 0 mm 0.0 W/m2 CLR
06:02 -19.6 °C -22.1 °C 1024.3 hPa West 13 km/h 13 km/h 80 % 0 mm 0.0 W/m2 CLR
06:07 -19.7 °C -22.3 °C 1024.6 hPa WNW 14.8 km/h 14.8 km/h 80 % 0 mm 0.0 W/m2 CLR
06:09 -19.8 °C -22.3 °C 1024.6 hPa WNW 13 km/h 13 km/h 80 % 0 mm 0.0 W/m2 CLR
06:14 -19.9 °C -22.4 °C 1024.6 hPa NW 14.8 km/h 14.8 km/h 80 % 0 mm 0.0 W/m2 CLR
06:15 -19.9 °C -22.5 °C 1024.6 hPa WNW 14.8 km/h 14.8 km/h 80 % 0 mm 0.0 W/m2 CLR
06:16 -19.9 °C -22.5 °C 1024.6 hPa West 13 km/h 13 km/h 80 % 0 mm 0.0 W/m2 CLR
06:21 -20.1 °C -22.6 °C 1024.9 hPa WNW 14.8 km/h 14.8 km/h 80 % 0 mm 0.0 W/m2 CLR
06:26 -20.1 °C -22.5 °C 1024.9 hPa West 13 km/h 13 km/h 81 % 0 mm 0.0 W/m2 CLR
06:31 -20.1 °C -22.5 °C 1024.9 hPa WNW 16.7 km/h 16.7 km/h 81 % 0 mm 0.0 W/m2 CLR
06:35 -20.1 °C -22.5 °C 1024.9 hPa West 16.7 km/h 16.7 km/h 81 % 0 mm 0.0 W/m2 CLR
06:37 -20.1 °C -22.5 °C 1024.9 hPa NW 12.9 km/h 12.9 km/h 81 % 0 mm 0.0 W/m2 CLR
06:38 -20.1 °C -22.5 °C 1024.9 hPa NW 16.7 km/h 16.7 km/h 81 % 0 mm 0.0 W/m2 CLR
06:42 -20.1 °C -22.5 °C 1024.9 hPa WNW 14.8 km/h 14.8 km/h 81 % 0 mm 0.0 W/m2 CLR
06:43 -20.1 °C -22.5 °C 1024.9 hPa NW 16.7 km/h 16.7 km/h 81 % 0 mm 0.0 W/m2 CLR
06:48 -20.1 °C -22.5 °C 1027.3 hPa WNW 16.7 km/h 16.7 km/h 81 % 0 mm 0.0 W/m2 CLR
06:50 -20.1 °C -22.5 °C 1024.9 hPa WNW 18.5 km/h 18.5 km/h 81 % 0 mm 0.0 W/m2 CLR
06:53 -20.1 °C -22.5 °C 1027 hPa WNW 14.8 km/h 14.8 km/h 81 % 0 mm 0.0 W/m2 CLR
06:54 -20.1 °C -22.5 °C 1024.9 hPa WNW 18.5 km/h 18.5 km/h 81 % 0 mm 0.0 W/m2 CLR
06:59 -20.1 °C -22.5 °C 1024.9 hPa WNW 18.5 km/h 18.5 km/h 81 % 0 mm 0.0 W/m2 CLR
07:03 -20.1 °C -22.6 °C 1024.9 hPa WNW 14.8 km/h 14.8 km/h 81 % 0 mm 0.0 W/m2 CLR
07:08 -20.2 °C -22.6 °C 1025.3 hPa West 14.5 km/h 14.5 km/h 81 % 0 mm 0.0 W/m2 CLR
07:09 -20.2 °C -22.7 °C 1025.3 hPa WNW 16.7 km/h 16.7 km/h 81 % 0 mm 0.0 W/m2 CLR
07:10 -20.2 °C -22.7 °C 1024.9 hPa WNW 18.5 km/h 18.5 km/h 81 % 0 mm 0.0 W/m2 CLR
07:12 -20.2 °C -22.7 °C 1024.9 hPa WNW 18.5 km/h 18.5 km/h 81 % 0 mm 0.0 W/m2 CLR
07:16 -20.3 °C -22.7 °C 1025.3 hPa WNW 12.9 km/h 12.9 km/h 81 % 0 mm 5.0 W/m2 CLR
07:21 -20.4 °C -22.8 °C 1025.3 hPa WNW 13 km/h 13 km/h 81 % 0 mm 7.0 W/m2 CLR
07:22 -20.4 °C -22.8 °C 1025.3 hPa WNW 13 km/h 13 km/h 81 % 0 mm 7.0 W/m2 CLR
07:27 -20.4 °C -22.8 °C 1025.3 hPa NW 14.8 km/h 14.8 km/h 81 % 0 mm 11.0 W/m2 CLR
07:28 -20.4 °C -22.8 °C 1025.3 hPa WNW 14.8 km/h 14.8 km/h 81 % 0 mm 11.0 W/m2 CLR
07:33 -20.4 °C -22.8 °C 1025.3 hPa WNW 13 km/h 13 km/h 81 % 0 mm 12.0 W/m2 -SN
07:34 -20.4 °C -22.8 °C 1025.3 hPa WNW 13 km/h 13 km/h 81 % 0 mm 14.0 W/m2 -SN
07:39 -20.4 °C -22.8 °C 1025.3 hPa WNW 14.8 km/h 14.8 km/h 81 % 0 mm 19.0 W/m2 -SN
07:40 -20.4 °C -22.8 °C 1025.3 hPa NW 14.8 km/h 14.8 km/h 81 % 0 mm 23.0 W/m2 -SN
07:41 -20.4 °C -22.8 °C 1027.3 hPa WNW 14.8 km/h 14.8 km/h 81 % 0 mm 25.0 W/m2 -SN
07:42 -20.4 °C -22.8 °C 1025.3 hPa WNW 11.1 km/h 11.1 km/h 81 % 0 mm 26.0 W/m2 -SN
07:47 -20.4 °C -22.8 °C 1025.3 hPa WNW 9.3 km/h 9.3 km/h 81 % 0 mm 40.0 W/m2 -SN
07:52 -20.3 °C -22.7 °C 1025.3 hPa WNW 8 km/h 8 km/h 81 % 0 mm 46.0 W/m2 -SN
07:57 -20.2 °C -22.6 °C 1025.3 hPa WNW 16.7 km/h 16.7 km/h 81 % 0 mm 65.0 W/m2 -SN
08:02 -20.1 °C -22.6 °C 1025.3 hPa WNW 16.1 km/h 16.1 km/h 81 % 0 mm 77.0 W/m2 CLR
08:07 -20.1 °C -22.7 °C 1025.6 hPa WNW 16.7 km/h 16.7 km/h 80 % 0 mm 93.0 W/m2 CLR
08:13 -20.1 °C -22.7 °C 1025.6 hPa NW 13 km/h 13 km/h 80 % 0 mm 107.0 W/m2 CLR
08:15 -20.1 °C -22.7 °C 1027.7 hPa WNW 13 km/h 13 km/h 80 % 0 mm 114.0 W/m2 CLR
08:19 -20.1 °C -22.7 °C 1025.6 hPa NW 14.8 km/h 14.8 km/h 80 % 0 mm 125.0 W/m2 CLR
08:24 -20.1 °C -22.6 °C 1025.6 hPa NW 14.8 km/h 14.8 km/h 80 % 0 mm 139.0 W/m2 CLR
08:25 -20 °C -22.6 °C 1025.6 hPa NW 16.7 km/h 16.7 km/h 80 % 0 mm 142.0 W/m2 CLR
08:26 -19.9 °C -22.5 °C 1025.6 hPa NW 13 km/h 13 km/h 80 % 0 mm 146.0 W/m2 CLR
08:31 -19.9 °C -22.4 °C 1025.6 hPa NW 14.8 km/h 14.8 km/h 80 % 0 mm 162.0 W/m2 CLR
08:34 -19.8 °C -22.3 °C 1025.6 hPa NW 18.5 km/h 18.5 km/h 80 % 0 mm 174.0 W/m2 CLR
08:39 -19.8 °C -22.3 °C 1025.6 hPa NW 18.5 km/h 18.5 km/h 80 % 0 mm 190.0 W/m2 CLR
08:44 -19.7 °C -22.3 °C 1025.6 hPa NW 18.5 km/h 18.5 km/h 80 % 0 mm 206.0 W/m2 CLR
08:46 -19.7 °C -22.3 °C 1025.6 hPa NW 18.5 km/h 18.5 km/h 80 % 0 mm 211.0 W/m2 CLR
08:48 -19.6 °C -22.2 °C 1025.6 hPa WNW 16.7 km/h 16.7 km/h 80 % 0 mm 216.0 W/m2 CLR
08:51 -19.5 °C -22.1 °C 1026 hPa WNW 13 km/h 13 km/h 80 % 0 mm 225.0 W/m2 CLR
08:52 -19.5 °C -22.1 °C 1026 hPa NW 14.8 km/h 14.8 km/h 80 % 0 mm 225.0 W/m2 CLR
08:54 -19.4 °C -22 °C 1026 hPa WNW 13 km/h 13 km/h 80 % 0 mm 234.0 W/m2 CLR
08:57 -19.4 °C -22.2 °C 1026 hPa NW 11.1 km/h 11.1 km/h 79 % 0 mm 243.0 W/m2 CLR
09:02 -19.3 °C -22.1 °C 1026 hPa WNW 13 km/h 13 km/h 79 % 0 mm 258.0 W/m2 CLR
09:07 -19.3 °C -22.1 °C 1026 hPa WNW 16.7 km/h 16.7 km/h 79 % 0 mm 271.0 W/m2 CLR
09:12 -19.2 °C -21.9 °C 1026 hPa NW 11.1 km/h 11.1 km/h 79 % 0 mm 281.0 W/m2 CLR
09:17 -19.2 °C -21.9 °C 1026 hPa NW 16.7 km/h 16.7 km/h 79 % 0 mm 292.0 W/m2 CLR
09:18 -19.2 °C -21.9 °C 1026 hPa NW 13 km/h 13 km/h 79 % 0 mm 297.0 W/m2 CLR
09:23 -19 °C -21.7 °C 1026.3 hPa WNW 17.7 km/h 17.7 km/h 79 % 0 mm 306.0 W/m2 CLR
09:25 -19 °C -21.7 °C 1028.3 hPa NW 19.3 km/h 19.3 km/h 79 % 0 mm 309.0 W/m2 CLR
09:28 -18.9 °C -21.7 °C 1026.3 hPa NW 18.5 km/h 18.5 km/h 79 % 0 mm 315.0 W/m2 CLR
09:29 -18.9 °C -21.7 °C 1026.3 hPa WNW 17.7 km/h 17.7 km/h 79 % 0 mm 316.0 W/m2 CLR
09:30 -18.9 °C -21.6 °C 1026.3 hPa WNW 18.5 km/h 18.5 km/h 79 % 0 mm 318.0 W/m2 CLR
09:35 -18.7 °C -21.6 °C 1026.3 hPa WNW 19.3 km/h 19.3 km/h 78 % 0 mm 329.0 W/m2 CLR
09:40 -18.6 °C -21.4 °C 1026.3 hPa NW 16.7 km/h 16.7 km/h 78 % 0 mm 338.0 W/m2 CLR
09:44 -18.4 °C -21.3 °C 1028.7 hPa WNW 16.7 km/h 16.7 km/h 78 % 0 mm 345.0 W/m2 CLR
09:45 -18.4 °C -21.3 °C 1026.3 hPa West 18.5 km/h 18.5 km/h 78 % 0 mm 345.0 W/m2 CLR
09:49 -18.3 °C -21.2 °C 1026.6 hPa WNW 18.5 km/h 18.5 km/h 78 % 0 mm 352.0 W/m2 CLR
09:50 -18.3 °C -21.2 °C 1028.7 hPa WNW 13 km/h 13 km/h 78 % 0 mm 353.0 W/m2 CLR
09:54 -18.2 °C -21.1 °C 1026.6 hPa WNW 14.8 km/h 14.8 km/h 78 % 0 mm 359.0 W/m2 CLR
09:59 -18.1 °C -21.1 °C 1026.6 hPa WNW 18.5 km/h 18.5 km/h 77 % 0 mm 367.0 W/m2 CLR
10:04 -17.9 °C -21 °C 1026.6 hPa NW 18.5 km/h 18.5 km/h 77 % 0 mm 376.0 W/m2 CLR
10:09 -17.8 °C -20.8 °C 1026.6 hPa WNW 16.7 km/h 16.7 km/h 77 % 0 mm 383.0 W/m2 CLR
10:10 -17.8 °C -20.8 °C 1026.6 hPa NW 16.7 km/h 16.7 km/h 77 % 0 mm 385.0 W/m2 CLR
10:11 -17.7 °C -20.8 °C 1026.6 hPa WNW 18.5 km/h 18.5 km/h 77 % 0 mm 387.0 W/m2 CLR
10:16 -17.6 °C -20.7 °C 1026.6 hPa NW 16.7 km/h 16.7 km/h 77 % 0 mm 396.0 W/m2 CLR
10:18 -17.5 °C -20.6 °C 1026.3 hPa NW 16.7 km/h 16.7 km/h 77 % 0 mm 397.0 W/m2 CLR
10:23 -17.3 °C -20.3 °C 1026.6 hPa NW 20.4 km/h 20.4 km/h 77 % 0 mm 406.0 W/m2 CLR
10:26 -17.2 °C -20.3 °C 1026.3 hPa NW 19.3 km/h 19.3 km/h 77 % 0 mm 408.0 W/m2 CLR
10:31 -17.1 °C -20.3 °C 1026.3 hPa NW 16.7 km/h 16.7 km/h 76 % 0 mm 415.0 W/m2 CLR
10:36 -16.9 °C -20.1 °C 1026.3 hPa NW 18.5 km/h 18.5 km/h 76 % 0 mm 424.0 W/m2 CLR
10:38 -16.8 °C -20.1 °C 1026.3 hPa WNW 18.5 km/h 18.5 km/h 76 % 0 mm 425.0 W/m2 CLR
10:42 -16.7 °C -19.9 °C 1026.3 hPa WNW 16.7 km/h 16.7 km/h 76 % 0 mm 431.0 W/m2 CLR
10:44 -16.7 °C -19.9 °C 1026.3 hPa WNW 16.7 km/h 16.7 km/h 76 % 0 mm 432.0 W/m2 CLR
10:49 -16.6 °C -19.8 °C 1026.3 hPa NW 22.2 km/h 22.2 km/h 76 % 0 mm 438.0 W/m2 CLR
10:53 -16.5 °C -19.9 °C 1026 hPa NW 18.5 km/h 18.5 km/h 75 % 0 mm 441.0 W/m2 CLR
10:57 -16.4 °C -19.8 °C 1028.3 hPa NW 18.5 km/h 18.5 km/h 75 % 0 mm 446.0 W/m2 CLR
10:58 -16.4 °C -19.8 °C 1026 hPa WNW 16.7 km/h 16.7 km/h 75 % 0 mm 446.0 W/m2 CLR
11:03 -16.3 °C -19.7 °C 1026 hPa NW 16.7 km/h 16.7 km/h 75 % 0 mm 454.0 W/m2 CLR
11:05 -16.2 °C -19.6 °C 1026 hPa WNW 16.7 km/h 16.7 km/h 75 % 0 mm 454.0 W/m2 CLR
11:10 -16.1 °C -19.4 °C 1026 hPa NW 16.7 km/h 16.7 km/h 75 % 0 mm 457.0 W/m2 CLR
11:12 -16 °C -19.4 °C 1026 hPa NW 20.4 km/h 20.4 km/h 75 % 0 mm 459.0 W/m2 CLR
11:17 -15.9 °C -19.4 °C 1026 hPa NW 20.4 km/h 20.4 km/h 74 % 0 mm 462.0 W/m2 CLR
11:20 -15.8 °C -19.4 °C 1026 hPa WNW 16.7 km/h 16.7 km/h 74 % 0 mm 466.0 W/m2 CLR
11:24 -15.8 °C -19.3 °C 1025.6 hPa NW 18.5 km/h 18.5 km/h 74 % 0 mm 466.0 W/m2 CLR
11:29 -15.6 °C -19.1 °C 1025.6 hPa WNW 18.5 km/h 18.5 km/h 74 % 0 mm 468.0 W/m2 CLR
11:31 -15.6 °C -19.1 °C 1028 hPa NW 20.4 km/h 20.4 km/h 74 % 0 mm 469.0 W/m2 CLR
11:34 -15.5 °C -19.2 °C 1025.6 hPa WNW 11.1 km/h 11.1 km/h 73 % 0 mm 469.0 W/m2 CLR
11:39 -15.3 °C -19.1 °C 1025.6 hPa NW 9.3 km/h 9.3 km/h 73 % 0 mm 473.0 W/m2 CLR
11:42 -15.2 °C -18.9 °C 1025.6 hPa NW 16.7 km/h 16.7 km/h 73 % 0 mm 475.0 W/m2 CLR
11:47 -15.1 °C -19 °C 1025.6 hPa NW 14.8 km/h 14.8 km/h 72 % 0 mm 476.0 W/m2 CLR
11:52 -14.9 °C -18.8 °C 1025.6 hPa NW 11.1 km/h 11.1 km/h 72 % 0 mm 476.0 W/m2 CLR
11:56 -14.8 °C -18.7 °C 1025.6 hPa NW 9.3 km/h 9.3 km/h 72 % 0 mm 476.0 W/m2 CLR
11:59 -14.7 °C -18.7 °C 1025.6 hPa NW 13 km/h 13 km/h 72 % 0 mm 476.0 W/m2 CLR
12:04 -14.6 °C -18.7 °C 1025.6 hPa NW 18.5 km/h 18.5 km/h 71 % 0 mm 476.0 W/m2 CLR
12:09 -14.4 °C -18.6 °C 1025.6 hPa NW 22.2 km/h 22.2 km/h 71 % 0 mm 476.0 W/m2 CLR
12:14 -14.3 °C -18.4 °C 1025.6 hPa NW 18.5 km/h 18.5 km/h 71 % 0 mm 475.0 W/m2 CLR
12:17 -14.3 °C -18.6 °C 1025.6 hPa NW 18.5 km/h 18.5 km/h 70 % 0 mm 475.0 W/m2 CLR
12:22 -14.2 °C -18.4 °C 1025.6 hPa WNW 11.1 km/h 11.1 km/h 70 % 0 mm 471.0 W/m2 CLR
12:23 -14.1 °C -18.2 °C 1025.6 hPa WNW 13 km/h 13 km/h 71 % 0 mm 471.0 W/m2 CLR
12:27 -13.9 °C -18.2 °C 1025.6 hPa WNW 16.7 km/h 16.7 km/h 70 % 0 mm 469.0 W/m2 CLR
12:29 -13.8 °C -18.1 °C 1025.6 hPa NW 13 km/h 13 km/h 70 % 0 mm 468.0 W/m2 CLR
12:34 -13.7 °C -18 °C 1025.6 hPa WNW 13 km/h 13 km/h 70 % 0 mm 464.0 W/m2 CLR
12:38 -13.7 °C -17.9 °C 1025.6 hPa WNW 9.3 km/h 9.3 km/h 70 % 0 mm 462.0 W/m2 CLR
12:39 -13.6 °C -18.1 °C 1025.6 hPa WNW 14.8 km/h 14.8 km/h 69 % 0 mm 462.0 W/m2 CLR
12:43 -13.6 °C -18.3 °C 1025.6 hPa NW 18.5 km/h 18.5 km/h 68 % 0 mm 459.0 W/m2 CLR
12:45 -13.6 °C -18.3 °C 1025.6 hPa NW 11.1 km/h 11.1 km/h 68 % 0 mm 457.0 W/m2 CLR
12:50 -13.6 °C -18.2 °C 1025.3 hPa WNW 18.5 km/h 18.5 km/h 68 % 0 mm 452.0 W/m2 CLR
12:51 -13.6 °C -18.2 °C 1025.3 hPa WNW 18.5 km/h 18.5 km/h 68 % 0 mm 452.0 W/m2 CLR
12:52 -13.6 °C -18.2 °C 1025.3 hPa NW 16.7 km/h 16.7 km/h 68 % 0 mm 450.0 W/m2 CLR
12:56 -13.6 °C -18.2 °C 1025.3 hPa WNW 18.5 km/h 18.5 km/h 68 % 0 mm 448.0 W/m2 CLR
13:01 -13.6 °C -18.3 °C 1025.3 hPa WNW 18.5 km/h 18.5 km/h 68 % 0 mm 443.0 W/m2 CLR
13:06 -13.6 °C -18.1 °C 1025.3 hPa NW 14.8 km/h 14.8 km/h 69 % 0 mm 438.0 W/m2 CLR
13:07 -13.6 °C -18.1 °C 1025.3 hPa WNW 14.8 km/h 14.8 km/h 69 % 0 mm 436.0 W/m2 CLR
13:12 -13.5 °C -18.2 °C 1025.3 hPa WSW 14.8 km/h 14.8 km/h 68 % 0 mm 431.0 W/m2 CLR
13:13 -13.4 °C -18.1 °C 1025.3 hPa West 14.8 km/h 14.8 km/h 68 % 0 mm 429.0 W/m2 CLR
13:18 -13.4 °C -18.1 °C 1027.7 hPa WNW 14.8 km/h 14.8 km/h 68 % 0 mm 422.0 W/m2 CLR
13:19 -13.4 °C -18.1 °C 1025.3 hPa WNW 18.5 km/h 18.5 km/h 68 % 0 mm 422.0 W/m2 CLR
13:24 -13.4 °C -18.1 °C 1025.3 hPa West 18.5 km/h 18.5 km/h 68 % 0 mm 415.0 W/m2 CLR
13:29 -13.3 °C -17.8 °C 1025.6 hPa West 13 km/h 13 km/h 69 % 0 mm 408.0 W/m2 CLR
13:30 -13.3 °C -17.8 °C 1027.7 hPa WNW 16.1 km/h 16.1 km/h 69 % 0 mm 408.0 W/m2 CLR
13:31 -13.3 °C -18 °C 1025.6 hPa WNW 18.5 km/h 18.5 km/h 68 % 0 mm 406.0 W/m2 CLR
13:34 -13.3 °C -17.9 °C 1025.6 hPa West 3.7 km/h 6.9 km/h 68 % 0 mm 401.0 W/m2 CLR
13:37 -13.3 °C -18 °C 1025.6 hPa West 18.5 km/h 18.5 km/h 68 % 0 mm 396.0 W/m2 CLR
13:42 -13.4 °C -18.3 °C 1025.6 hPa WNW 18.5 km/h 18.5 km/h 67 % 0 mm 388.0 W/m2 CLR
13:43 -13.4 °C -18.3 °C 1025.6 hPa WNW 16.7 km/h 16.7 km/h 67 % 0 mm 388.0 W/m2 CLR
13:48 -13.4 °C -18.3 °C 1025.6 hPa West 18.5 km/h 18.5 km/h 67 % 0 mm 380.0 W/m2 CLR
13:49 -13.4 °C -18.3 °C 1025.6 hPa West 18.5 km/h 18.5 km/h 67 % 0 mm 376.0 W/m2 CLR
13:50 -13.4 °C -18.3 °C 1025.6 hPa WNW 18.5 km/h 18.5 km/h 67 % 0 mm 374.0 W/m2 CLR
13:55 -13.4 °C -18.3 °C 1025.6 hPa NW 20.4 km/h 20.4 km/h 67 % 0 mm 366.0 W/m2 CLR
14:00 -13.3 °C -18 °C 1025.6 hPa WNW 18.5 km/h 18.5 km/h 68 % 0 mm 357.0 W/m2 CLR
14:03 -13.3 °C -18.2 °C 1025.6 hPa NW 18.5 km/h 18.5 km/h 67 % 0 mm 355.0 W/m2 CLR
14:08 -13.3 °C -18.2 °C 1025.6 hPa West 18.5 km/h 18.5 km/h 67 % 0 mm 345.0 W/m2 CLR
14:09 -13.3 °C -18.2 °C 1026 hPa West 18.5 km/h 18.5 km/h 67 % 0 mm 343.0 W/m2 CLR
14:12 -13.3 °C -18.2 °C 1028 hPa West 18.5 km/h 18.5 km/h 67 % 0 mm 336.0 W/m2 CLR
14:13 -13.3 °C -18.2 °C 1026 hPa West 18.5 km/h 18.5 km/h 67 % 0 mm 334.0 W/m2 CLR
14:18 -13.2 °C -18.1 °C 1026 hPa NW 18.5 km/h 18.5 km/h 67 % 0 mm 323.0 W/m2 CLR
14:22 -13.2 °C -18.1 °C 1026 hPa West 13 km/h 13 km/h 67 % 0 mm 316.0 W/m2 CLR
14:23 -13.2 °C -18.1 °C 1026 hPa NW 13 km/h 13 km/h 67 % 0 mm 313.0 W/m2 CLR
14:28 -13.2 °C -18 °C 1026 hPa West 20.4 km/h 20.4 km/h 67 % 0 mm 302.0 W/m2 CLR
14:33 -13.2 °C -18.1 °C 1026 hPa West 14.5 km/h 14.5 km/h 67 % 0 mm 292.0 W/m2 CLR
14:34 -13.2 °C -18 °C 1026 hPa WNW 18.5 km/h 18.5 km/h 67 % 0 mm 288.0 W/m2 CLR
14:36 -13.2 °C -18.1 °C 1026 hPa WNW 18.5 km/h 18.5 km/h 67 % 0 mm 285.0 W/m2 CLR
14:37 -13.2 °C -18.1 °C 1026 hPa NW 22.2 km/h 22.2 km/h 67 % 0 mm 281.0 W/m2 CLR
14:42 -13.2 °C -18.1 °C 1026 hPa West 17.7 km/h 17.7 km/h 67 % 0 mm 271.0 W/m2 CLR
14:47 -13.3 °C -18.1 °C 1026 hPa WNW 14.8 km/h 14.8 km/h 67 % 0 mm 255.0 W/m2 CLR
14:51 -13.3 °C -18.2 °C 1026 hPa West 18.5 km/h 18.5 km/h 67 % 0 mm 244.0 W/m2 CLR
14:56 -13.4 °C -18.2 °C 1026 hPa WNW 20.4 km/h 20.4 km/h 67 % 0 mm 227.0 W/m2 CLR
14:59 -13.4 °C -18.3 °C 1026 hPa WNW 18.5 km/h 18.5 km/h 67 % 0 mm 218.0 W/m2 CLR
15:01 -13.5 °C -18.2 °C 1026 hPa West 18.5 km/h 18.5 km/h 68 % 0 mm 209.0 W/m2 CLR
15:06 -13.6 °C -18.2 °C 1026 hPa West 20.4 km/h 20.4 km/h 68 % 0 mm 193.0 W/m2 CLR
15:07 -13.6 °C -18.2 °C 1028 hPa NW 20.4 km/h 20.4 km/h 68 % 0 mm 193.0 W/m2 CLR
15:09 -13.6 °C -18.3 °C 1026 hPa WNW 18.5 km/h 18.5 km/h 68 % 0 mm 188.0 W/m2 CLR
15:14 -13.8 °C -18.2 °C 1026 hPa WNW 22.2 km/h 22.2 km/h 69 % 0 mm 172.0 W/m2 CLR
15:21 -13.9 °C -18.4 °C 1026 hPa NW 18.5 km/h 18.5 km/h 69 % 0 mm 151.0 W/m2 CLR
15:22 -13.9 °C -18.4 °C 1028.3 hPa West 16.7 km/h 16.7 km/h 69 % 0 mm 142.0 W/m2 CLR
15:28 -14.1 °C -18.3 °C 1028 hPa WNW 14.8 km/h 14.8 km/h 70 % 0 mm 125.0 W/m2 CLR
15:29 -14.1 °C -18.3 °C 1028.3 hPa WNW 16.7 km/h 16.7 km/h 70 % 0 mm 125.0 W/m2 CLR
15:31 -14.1 °C -18.4 °C 1028 hPa NW 14.8 km/h 14.8 km/h 70 % 0 mm 120.0 W/m2 CLR
15:32 -14.1 °C -18.4 °C 1028 hPa NW 13 km/h 13 km/h 70 % 0 mm 114.0 W/m2 CLR
15:41 -14.3 °C -18.6 °C 1026 hPa West 16.7 km/h 16.7 km/h 70 % 0 mm 91.0 W/m2 CLR
15:42 -14.4 °C -18.7 °C 1028.3 hPa WNW 18.5 km/h 18.5 km/h 70 % 0 mm 83.0 W/m2 CLR
15:43 -14.4 °C -18.7 °C 1028.3 hPa West 18.5 km/h 18.5 km/h 70 % 0 mm 54.0 W/m2 CLR
15:44 -14.4 °C -18.6 °C 1026 hPa WNW 18.5 km/h 18.5 km/h 71 % 0 mm 40.0 W/m2 CLR
15:45 -14.5 °C -18.6 °C 1026 hPa West 18.5 km/h 18.5 km/h 71 % 0 mm 32.0 W/m2 CLR
15:47 -14.6 °C -18.7 °C 1028.3 hPa WNW 18.5 km/h 18.5 km/h 71 % 0 mm 28.0 W/m2 CLR
15:48 -14.6 °C -18.7 °C 1026 hPa WNW 18.5 km/h 18.5 km/h 71 % 0 mm 28.0 W/m2 CLR
15:49 -14.6 °C -18.7 °C 1028.3 hPa WNW 18.5 km/h 18.5 km/h 71 % 0 mm 28.0 W/m2 CLR
15:50 -14.7 °C -18.8 °C 1026 hPa NW 19.3 km/h 19.3 km/h 71 % 0 mm 28.0 W/m2 CLR
15:54 -14.7 °C -18.8 °C 1026 hPa NW 17.7 km/h 17.7 km/h 71 % 0 mm 26.0 W/m2 CLR
15:58 -14.8 °C -18.8 °C 1026.3 hPa WNW 22.2 km/h 22.2 km/h 72 % 0 mm 25.0 W/m2 CLR
16:01 -14.9 °C -18.8 °C 1026.3 hPa WNW 13 km/h 13 km/h 72 % 0 mm 23.0 W/m2 CLR
16:06 -15 °C -18.9 °C 1026.3 hPa WNW 18.5 km/h 18.5 km/h 72 % 0 mm 21.0 W/m2 CLR
16:09 -15.1 °C -19 °C 1026.3 hPa WNW 14.8 km/h 14.8 km/h 72 % 0 mm 19.0 W/m2 CLR
16:13 -15.2 °C -18.9 °C 1026.3 hPa West 17.7 km/h 17.7 km/h 73 % 0 mm 16.0 W/m2 CLR
16:17 -15.2 °C -19 °C 1026.3 hPa WNW 16.1 km/h 16.1 km/h 73 % 0 mm 12.0 W/m2 CLR
16:20 -15.3 °C -19.1 °C 1026.3 hPa WNW 14.8 km/h 14.8 km/h 73 % 0 mm 11.0 W/m2 CLR
16:25 -15.4 °C -19.1 °C 1026.3 hPa West 14.8 km/h 14.8 km/h 73 % 0 mm 7.0 W/m2 CLR
16:26 -15.4 °C -19.2 °C 1026.3 hPa WNW 13 km/h 13 km/h 73 % 0 mm 7.0 W/m2 CLR
16:31 -15.5 °C -19.2 °C 1026.3 hPa WNW 16.7 km/h 16.7 km/h 73 % 0 mm 5.0 W/m2 CLR
16:34 -15.6 °C -19.3 °C 1026.3 hPa West 14.8 km/h 14.8 km/h 73 % 0 mm 0.0 W/m2 CLR
16:39 -15.7 °C -19.4 °C 1026.3 hPa NW 17.7 km/h 17.7 km/h 73 % 0 mm 0.0 W/m2 CLR
16:40 -15.7 °C -19.4 °C 1026.3 hPa WNW 18.5 km/h 18.5 km/h 73 % 0 mm 0.0 W/m2 CLR
16:44 -15.7 °C -19.3 °C 1026.3 hPa WNW 16.7 km/h 16.7 km/h 74 % 0 mm 0.0 W/m2 CLR
16:47 -15.8 °C -19.5 °C 1026.3 hPa West 14.8 km/h 14.8 km/h 73 % 0 mm 0.0 W/m2 CLR
16:50 -15.8 °C -19.6 °C 1026.3 hPa NW 16.7 km/h 16.7 km/h 73 % 0 mm 0.0 W/m2 CLR
16:52 -15.9 °C -19.4 °C 1026.3 hPa NW 18.5 km/h 18.5 km/h 74 % 0 mm 0.0 W/m2 CLR
16:58 -16 °C -19.6 °C 1026.3 hPa WNW 16.7 km/h 16.7 km/h 74 % 0 mm 0.0 W/m2 CLR
16:59 -16 °C -19.6 °C 1026.3 hPa WNW 14.8 km/h 14.8 km/h 74 % 0 mm 0.0 W/m2 CLR
17:04 -16.1 °C -19.6 °C 1026.3 hPa WNW 11.1 km/h 11.1 km/h 74 % 0 mm 0.0 W/m2 CLR
17:05 -16.1 °C -19.7 °C 1026.3 hPa WNW 13 km/h 13 km/h 74 % 0 mm 0.0 W/m2 CLR
17:10 -16.2 °C -19.6 °C 1026.3 hPa WNW 18.5 km/h 18.5 km/h 75 % 0 mm 0.0 W/m2 CLR
17:20 -16.3 °C -19.7 °C 1026.6 hPa WNW 14.8 km/h 14.8 km/h 75 % 0 mm 0.0 W/m2 CLR
17:21 -16.3 °C -19.7 °C 1026.6 hPa NW 16.7 km/h 16.7 km/h 75 % 0 mm 0.0 W/m2 CLR
17:26 -16.4 °C -19.8 °C 1026.6 hPa NW 16.7 km/h 16.7 km/h 75 % 0 mm 0.0 W/m2 CLR
17:28 -16.4 °C -19.8 °C 1026.6 hPa West 13 km/h 13 km/h 75 % 0 mm 0.0 W/m2 CLR
17:33 -16.5 °C -19.7 °C 1026.6 hPa WNW 13 km/h 13 km/h 76 % 0 mm 0.0 W/m2 CLR
17:39 -16.6 °C -19.8 °C 1026.6 hPa WNW 11.1 km/h 11.1 km/h 76 % 0 mm 0.0 W/m2 CLR
17:40 -16.6 °C -19.8 °C 1026.6 hPa WNW 13 km/h 13 km/h 76 % 0 mm 0.0 W/m2 CLR
17:41 -16.6 °C -19.8 °C 1026.6 hPa WNW 11.3 km/h 11.3 km/h 76 % 0 mm 0.0 W/m2 CLR
17:47 -16.7 °C -19.9 °C 1026.6 hPa West 13 km/h 13 km/h 76 % 0 mm 0.0 W/m2 CLR
17:51 -16.8 °C -19.9 °C 1026.6 hPa WNW 13 km/h 13 km/h 77 % 0 mm 0.0 W/m2 CLR
17:53 -16.9 °C -19.9 °C 1026.6 hPa NW 13 km/h 13 km/h 77 % 0 mm 0.0 W/m2 CLR
17:58 -16.9 °C -20 °C 1026.6 hPa WNW 11.1 km/h 11.1 km/h 77 % 0 mm 0.0 W/m2 CLR
18:03 -16.9 °C -19.8 °C 1026.6 hPa WNW 7.4 km/h 7.4 km/h 78 % 0 mm 0.0 W/m2 CLR
18:05 -16.9 °C -19.8 °C 1026.6 hPa WNW 14.8 km/h 14.8 km/h 78 % 0 mm 0.0 W/m2 CLR
18:10 -16.7 °C -19.7 °C 1026.6 hPa NW 11.1 km/h 11.1 km/h 78 % 0 mm 0.0 W/m2 CLR
18:13 -16.8 °C -19.7 °C 1026.6 hPa WNW 14.8 km/h 14.8 km/h 78 % 0 mm 0.0 W/m2 CLR
18:18 -16.8 °C -19.8 °C 1026.6 hPa WNW 14.8 km/h 14.8 km/h 78 % 0 mm 0.0 W/m2 CLR
18:24 -16.9 °C -20 °C 1026.6 hPa WNW 13 km/h 13 km/h 77 % 0 mm 0.0 W/m2 CLR
18:29 -16.9 °C -19.9 °C 1026.6 hPa WNW 18.5 km/h 18.5 km/h 78 % 0 mm 0.0 W/m2 CLR
18:34 -16.9 °C -19.8 °C 1026.6 hPa WNW 14.8 km/h 14.8 km/h 78 % 0 mm 0.0 W/m2 CLR
18:35 -16.9 °C -19.9 °C 1026.6 hPa WNW 16.7 km/h 16.7 km/h 78 % 0 mm 0.0 W/m2 CLR
18:36 -16.9 °C -19.8 °C 1026.6 hPa WNW 14.8 km/h 14.8 km/h 78 % 0 mm 0.0 W/m2 CLR
18:41 -16.9 °C -19.9 °C 1026.6 hPa WNW 13 km/h 13 km/h 78 % 0 mm 0.0 W/m2 CLR
18:46 -16.9 °C -19.8 °C 1026.6 hPa West 14.8 km/h 14.8 km/h 78 % 0 mm 0.0 W/m2 CLR
18:47 -16.9 °C -19.8 °C 1026.6 hPa WNW 13 km/h 13 km/h 78 % 0 mm 0.0 W/m2 CLR
18:52 -16.9 °C -20 °C 1026.6 hPa WNW 14.8 km/h 14.8 km/h 77 % 0 mm 0.0 W/m2 CLR
18:53 -16.9 °C -20 °C 1027 hPa WNW 14.5 km/h 14.5 km/h 77 % 0 mm 0.0 W/m2 CLR
18:58 -17 °C -19.9 °C 1027 hPa WNW 14.8 km/h 14.8 km/h 78 % 0 mm 0.0 W/m2 CLR
19:04 -17 °C -19.9 °C 1027 hPa West 14.8 km/h 14.8 km/h 78 % 0 mm 0.0 W/m2 CLR
19:09 -17.2 °C -20.1 °C 1027 hPa WNW 13 km/h 13 km/h 78 % 0 mm 0.0 W/m2 CLR
19:13 -17.2 °C -20.2 °C 1027 hPa WNW 16.7 km/h 16.7 km/h 78 % 0 mm 0.0 W/m2 CLR
19:18 -17.3 °C -20.2 °C 1026.6 hPa WNW 14.8 km/h 14.8 km/h 78 % 0 mm 0.0 W/m2 CLR
19:23 -17.3 °C -20.2 °C 1027 hPa WNW 16.7 km/h 16.7 km/h 78 % 0 mm 0.0 W/m2 CLR
19:28 -17.2 °C -20.2 °C 1027 hPa NW 9.7 km/h 9.7 km/h 78 % 0 mm 0.0 W/m2 CLR
19:31 -17.2 °C -20.2 °C 1026.6 hPa WNW 11.1 km/h 11.1 km/h 78 % 0 mm 0.0 W/m2 CLR
19:35 -17.3 °C -20.2 °C 1026.6 hPa West 11.1 km/h 11.1 km/h 78 % 0 mm 0.0 W/m2 CLR
19:40 -17.3 °C -20.2 °C 1026.6 hPa WNW 13 km/h 13 km/h 78 % 0 mm 0.0 W/m2 CLR
19:45 -17.3 °C -20.2 °C 1026.6 hPa WNW 18.5 km/h 18.5 km/h 78 % 0 mm 0.0 W/m2 CLR
19:46 -17.3 °C -20.2 °C 1026.6 hPa WNW 18.5 km/h 18.5 km/h 78 % 0 mm 0.0 W/m2 CLR
19:48 -17.3 °C -20.2 °C 1026.6 hPa West 14.8 km/h 14.8 km/h 78 % 0 mm 0.0 W/m2 CLR
19:51 -17.3 °C -20.2 °C 1026.6 hPa WNW 11.1 km/h 11.1 km/h 78 % 0 mm 0.0 W/m2 CLR
19:54 -17.3 °C -20.2 °C 1027 hPa WNW 13 km/h 13 km/h 78 % 0 mm 0.0 W/m2 CLR
19:59 -17.3 °C -20.3 °C 1027 hPa WNW 12.9 km/h 12.9 km/h 78 % 0 mm 0.0 W/m2 CLR
20:01 -17.4 °C -20.3 °C 1026.6 hPa WNW 16.7 km/h 16.7 km/h 78 % 0 mm 0.0 W/m2 CLR
20:06 -17.4 °C -20.2 °C 1026.6 hPa NW 16.7 km/h 16.7 km/h 79 % 0 mm 0.0 W/m2 CLR
20:09 -17.4 °C -20.2 °C 1026.6 hPa NW 13 km/h 13 km/h 79 % 0 mm 0.0 W/m2 CLR
20:14 -17.5 °C -20.3 °C 1027 hPa WNW 12.9 km/h 12.9 km/h 79 % 0 mm 0.0 W/m2 CLR
20:19 -17.5 °C -20.3 °C 1027 hPa WNW 14.8 km/h 14.8 km/h 79 % 0 mm 0.0 W/m2 CLR
20:25 -17.6 °C -20.5 °C 1027 hPa WNW 11.3 km/h 11.3 km/h 78 % 0 mm 0.0 W/m2 CLR
20:26 -17.6 °C -20.4 °C 1027 hPa WNW 11.1 km/h 11.1 km/h 79 % 0 mm 0.0 W/m2 CLR
20:31 -17.7 °C -20.4 °C 1027 hPa WNW 13 km/h 13 km/h 79 % 0 mm 0.0 W/m2 CLR
20:32 -17.7 °C -20.4 °C 1027 hPa WNW 11.1 km/h 11.1 km/h 79 % 0 mm 0.0 W/m2 CLR
20:33 -17.7 °C -20.4 °C 1027 hPa WNW 9.3 km/h 9.3 km/h 79 % 0 mm 0.0 W/m2 CLR
20:40 -17.7 °C -20.4 °C 1027 hPa WNW 13 km/h 13 km/h 79 % 0 mm 0.0 W/m2 CLR
20:45 -17.7 °C -20.5 °C 1027 hPa WNW 13 km/h 13 km/h 79 % 0 mm 0.0 W/m2 CLR
20:46 -17.7 °C -20.5 °C 1027 hPa WNW 14.8 km/h 14.8 km/h 79 % 0 mm 0.0 W/m2 CLR
20:51 -17.7 °C -20.5 °C 1026.6 hPa WNW 11.1 km/h 11.1 km/h 79 % 0 mm 0.0 W/m2 CLR
20:53 -17.7 °C -20.5 °C 1027 hPa WNW 13 km/h 13 km/h 79 % 0 mm 0.0 W/m2 CLR
20:58 -17.8 °C -20.6 °C 1027 hPa NW 13 km/h 13 km/h 79 % 0 mm 0.0 W/m2 CLR
21:01 -17.9 °C -20.7 °C 1027 hPa WNW 14.8 km/h 14.8 km/h 79 % 0 mm 0.0 W/m2 CLR
21:07 -18 °C -20.8 °C 1027 hPa WNW 9.7 km/h 9.7 km/h 79 % 0 mm 0.0 W/m2 CLR
21:09 -18 °C -20.8 °C 1027 hPa WNW 14.8 km/h 14.8 km/h 79 % 0 mm 0.0 W/m2 CLR
21:14 -18.1 °C -20.8 °C 1027 hPa WNW 11.1 km/h 11.1 km/h 79 % 0 mm 0.0 W/m2 CLR
21:18 -18.1 °C -20.8 °C 1027 hPa WNW 16.1 km/h 16.1 km/h 79 % 0 mm 0.0 W/m2 CLR
21:19 -18.1 °C -20.7 °C 1027 hPa West 16.7 km/h 16.7 km/h 80 % 0 mm 0.0 W/m2 CLR
21:24 -18.2 °C -20.9 °C 1027 hPa West 9.3 km/h 9.3 km/h 79 % 0 mm 0.0 W/m2 CLR
21:29 -18.3 °C -21 °C 1027 hPa WNW 14.8 km/h 14.8 km/h 79 % 0 mm 0.0 W/m2 CLR
21:33 -18.3 °C -20.9 °C 1027 hPa WNW 11.1 km/h 11.1 km/h 80 % 0 mm 0.0 W/m2 CLR
21:36 -18.3 °C -20.9 °C 1027 hPa WNW 9.3 km/h 9.3 km/h 80 % 0 mm 0.0 W/m2 CLR
21:39 -18.3 °C -20.9 °C 1027 hPa WNW 9.3 km/h 9.3 km/h 80 % 0 mm 0.0 W/m2 CLR
21:44 -18.3 °C -20.9 °C 1027.3 hPa WNW 11.1 km/h 11.1 km/h 80 % 0 mm 0.0 W/m2 CLR
21:50 -18.3 °C -20.9 °C 1027.3 hPa West 11.1 km/h 11.1 km/h 80 % 0 mm 0.0 W/m2 CLR
21:55 -18.1 °C -20.6 °C 1027.3 hPa WNW 9.3 km/h 9.3 km/h 81 % 0 mm 0.0 W/m2 CLR
22:00 -18.1 °C -20.7 °C 1027.3 hPa West 11.1 km/h 11.1 km/h 80 % 0 mm 0.0 W/m2 CLR
22:01 -18.1 °C -20.7 °C 1027.3 hPa WNW 11.1 km/h 11.1 km/h 80 % 0 mm 0.0 W/m2 CLR
22:06 -18.2 °C -20.8 °C 1027 hPa WNW 5.6 km/h 5.6 km/h 80 % 0 mm 0.0 W/m2 CLR
22:08 -18.2 °C -20.8 °C 1027 hPa WNW 9.7 km/h 9.7 km/h 80 % 0 mm 0.0 W/m2 CLR
22:13 -18.3 °C -20.7 °C 1027 hPa West 9.3 km/h 9.3 km/h 81 % 0 mm 0.0 W/m2 CLR
22:18 -18.1 °C -20.6 °C 1027.3 hPa WNW 13 km/h 13 km/h 81 % 0 mm 0.0 W/m2 CLR
22:20 -18.1 °C -20.5 °C 1027.3 hPa West 16.7 km/h 16.7 km/h 81 % 0 mm 0.0 W/m2 CLR
22:25 -18 °C -20.4 °C 1027.3 hPa WNW 14.8 km/h 14.8 km/h 81 % 0 mm 0.0 W/m2 CLR
22:28 -18.1 °C -20.5 °C 1027.3 hPa West 14.8 km/h 14.8 km/h 81 % 0 mm 0.0 W/m2 CLR
22:32 -18.2 °C -20.8 °C 1027.3 hPa WNW 13 km/h 13 km/h 80 % 0 mm 0.0 W/m2 CLR
22:37 -18.3 °C -20.9 °C 1027.3 hPa WNW 14.8 km/h 14.8 km/h 80 % 0 mm 0.0 W/m2 CLR
22:39 -18.3 °C -20.8 °C 1027.3 hPa West 14.5 km/h 14.5 km/h 81 % 0 mm 0.0 W/m2 CLR
22:42 -18.3 °C -20.8 °C 1027.3 hPa WNW 14.8 km/h 14.8 km/h 81 % 0 mm 0.0 W/m2 CLR
22:45 -18.3 °C -20.8 °C 1027.3 hPa WNW 13 km/h 13 km/h 81 % 0 mm 0.0 W/m2 CLR
22:47 -18.3 °C -20.8 °C 1027.3 hPa WNW 13 km/h 13 km/h 81 % 0 mm 0.0 W/m2 CLR
22:52 -18.3 °C -20.8 °C 1027.3 hPa WNW 14.8 km/h 14.8 km/h 81 % 0 mm 0.0 W/m2 CLR
22:54 -18.3 °C -20.8 °C 1027.3 hPa WNW 14.8 km/h 14.8 km/h 81 % 0 mm 0.0 W/m2 CLR
22:59 -18.4 °C -20.9 °C 1027.3 hPa WNW 11.1 km/h 11.1 km/h 81 % 0 mm 0.0 W/m2 CLR
23:02 -18.4 °C -20.9 °C 1027.7 hPa West 13 km/h 13 km/h 81 % 0 mm 0.0 W/m2 CLR
23:03 -18.5 °C -20.9 °C 1027.3 hPa WNW 14.8 km/h 14.8 km/h 81 % 0 mm 0.0 W/m2 CLR
23:08 -18.4 °C -20.9 °C 1027.7 hPa NW 12.9 km/h 12.9 km/h 81 % 0 mm 0.0 W/m2 CLR
23:14 -18.4 °C -20.8 °C 1027.7 hPa WNW 14.8 km/h 14.8 km/h 81 % 0 mm 0.0 W/m2 CLR
23:15 -18.4 °C -20.8 °C 1027.7 hPa WNW 14.8 km/h 14.8 km/h 81 % 0 mm 0.0 W/m2 CLR
23:20 -18.4 °C -20.9 °C 1027.3 hPa WNW 14.8 km/h 14.8 km/h 81 % 0 mm 0.0 W/m2 CLR
23:21 -18.4 °C -20.9 °C 1027.3 hPa West 11.1 km/h 11.1 km/h 81 % 0 mm 0.0 W/m2 CLR
23:26 -18.4 °C -20.9 °C 1027.3 hPa West 13 km/h 13 km/h 81 % 0 mm 0.0 W/m2 CLR
23:28 -18.4 °C -20.9 °C 1027.3 hPa West 14.8 km/h 14.8 km/h 81 % 0 mm 0.0 W/m2 CLR
23:34 -18.4 °C -20.9 °C 1027.3 hPa NW 18.5 km/h 18.5 km/h 81 % 0 mm 0.0 W/m2 CLR
23:39 -18.4 °C -20.9 °C 1027.3 hPa WNW 14.8 km/h 14.8 km/h 81 % 0 mm 0.0 W/m2 CLR
23:43 -18.4 °C -20.9 °C 1027.3 hPa WNW 13 km/h 13 km/h 81 % 0 mm 0.0 W/m2 CLR
23:48 -18.5 °C -21.1 °C 1027.3 hPa WNW 13 km/h 13 km/h 80 % 0 mm 0.0 W/m2 -SN
23:53 -18.6 °C -21.2 °C 1027.3 hPa WNW 9.3 km/h 9.3 km/h 80 % 0 mm 0.0 W/m2 -SN
23:55 -18.6 °C -21.2 °C 1027.3 hPa WNW 11.1 km/h 11.1 km/h 80 % 0 mm 0.0 W/m2 -SN
23:56 -18.6 °C -21.2 °C 1027.3 hPa NW 9.7 km/h 9.7 km/h 80 % 0 mm 0.0 W/m2 -SN
Bourbonnais, Illinois, USA
Compliments of Weather Underground - 4.25 mb